sensor_id;sensor_type;location;lat;lon;timestamp;temperature;humidity
4556;DHT22;2290;48.674;9.018;2022-11-20T00:01:08;5.80;99.90
4556;DHT22;2290;48.674;9.018;2022-11-20T00:03:34;5.80;99.90
4556;DHT22;2290;48.674;9.018;2022-11-20T00:06:01;5.80;99.90
4556;DHT22;2290;48.674;9.018;2022-11-20T00:08:26;5.80;99.90
4556;DHT22;2290;48.674;9.018;2022-11-20T00:10:52;5.80;99.90
4556;DHT22;2290;48.674;9.018;2022-11-20T00:13:18;5.90;99.90
4556;DHT22;2290;48.674;9.018;2022-11-20T00:15:44;5.90;99.90
4556;DHT22;2290;48.674;9.018;2022-11-20T00:18:09;5.90;99.90
4556;DHT22;2290;48.674;9.018;2022-11-20T00:20:35;7.40;99.90
4556;DHT22;2290;48.674;9.018;2022-11-20T00:23:00;5.80;99.90
4556;DHT22;2290;48.674;9.018;2022-11-20T00:25:26;7.60;99.90
4556;DHT22;2290;48.674;9.018;2022-11-20T00:27:52;5.90;99.90
4556;DHT22;2290;48.674;9.018;2022-11-20T00:30:17;5.70;99.90
4556;DHT22;2290;48.674;9.018;2022-11-20T00:32:43;5.70;99.90
4556;DHT22;2290;48.674;9.018;2022-11-20T00:35:08;5.70;99.90
4556;DHT22;2290;48.674;9.018;2022-11-20T00:37:35;5.60;99.90
4556;DHT22;2290;48.674;9.018;2022-11-20T00:40:01;6.00;99.90
4556;DHT22;2290;48.674;9.018;2022-11-20T00:42:26;7.10;99.90
4556;DHT22;2290;48.674;9.018;2022-11-20T00:44:52;5.60;99.90
4556;DHT22;2290;48.674;9.018;2022-11-20T00:47:18;5.60;99.90
4556;DHT22;2290;48.674;9.018;2022-11-20T00:49:43;5.60;99.90
4556;DHT22;2290;48.674;9.018;2022-11-20T00:52:09;5.60;99.90
4556;DHT22;2290;48.674;9.018;2022-11-20T00:54:34;5.50;99.90
4556;DHT22;2290;48.674;9.018;2022-11-20T00:57:00;5.50;99.90
4556;DHT22;2290;48.674;9.018;2022-11-20T00:59:26;6.00;99.90
4556;DHT22;2290;48.674;9.018;2022-11-20T01:01:51;5.50;99.90
4556;DHT22;2290;48.674;9.018;2022-11-20T01:04:17;5.50;99.90
4556;DHT22;2290;48.674;9.018;2022-11-20T01:06:42;5.50;99.90
4556;DHT22;2290;48.674;9.018;2022-11-20T01:09:12;5.90;99.90
4556;DHT22;2290;48.674;9.018;2022-11-20T01:11:41;5.60;99.90
4556;DHT22;2290;48.674;9.018;2022-11-20T01:14:10;5.50;99.90
4556;DHT22;2290;48.674;9.018;2022-11-20T01:16:38;5.50;99.90
4556;DHT22;2290;48.674;9.018;2022-11-20T01:19:10;5.50;99.90
4556;DHT22;2290;48.674;9.018;2022-11-20T01:21:38;5.40;99.90
4556;DHT22;2290;48.674;9.018;2022-11-20T01:31:50;5.30;99.90
4556;DHT22;2290;48.674;9.018;2022-11-20T01:39:27;5.30;99.90
4556;DHT22;2290;48.674;9.018;2022-11-20T01:41:54;5.40;99.90
4556;DHT22;2290;48.674;9.018;2022-11-20T01:44:56;5.30;99.90
4556;DHT22;2290;48.674;9.018;2022-11-20T01:47:30;5.30;99.90
4556;DHT22;2290;48.674;9.018;2022-11-20T01:50:36;5.30;99.90
4556;DHT22;2290;48.674;9.018;2022-11-20T01:53:05;5.40;99.90
4556;DHT22;2290;48.674;9.018;2022-11-20T01:55:39;5.40;99.90
4556;DHT22;2290;48.674;9.018;2022-11-20T01:58:06;6.00;99.90
4556;DHT22;2290;48.674;9.018;2022-11-20T02:00:32;5.40;99.90
4556;DHT22;2290;48.674;9.018;2022-11-20T02:03:01;5.40;99.90
4556;DHT22;2290;48.674;9.018;2022-11-20T02:05:55;5.40;99.90
4556;DHT22;2290;48.674;9.018;2022-11-20T02:10:54;5.30;99.90
4556;DHT22;2290;48.674;9.018;2022-11-20T02:13:20;5.30;99.90
4556;DHT22;2290;48.674;9.018;2022-11-20T02:16:01;5.10;99.90
4556;DHT22;2290;48.674;9.018;2022-11-20T02:21:18;4.90;99.90
4556;DHT22;2290;48.674;9.018;2022-11-20T02:52:21;5.10;99.90
4556;DHT22;2290;48.674;9.018;2022-11-20T03:02:33;5.20;99.90
4556;DHT22;2290;48.674;9.018;2022-11-20T03:04:59;5.20;99.90
4556;DHT22;2290;48.674;9.018;2022-11-20T03:07:25;5.20;99.90
4556;DHT22;2290;48.674;9.018;2022-11-20T03:09:50;5.20;99.90
4556;DHT22;2290;48.674;9.018;2022-11-20T03:14:52;5.10;99.90
4556;DHT22;2290;48.674;9.018;2022-11-20T03:17:17;4.80;99.90
4556;DHT22;2290;48.674;9.018;2022-11-20T03:19:43;5.10;99.90
4556;DHT22;2290;48.674;9.018;2022-11-20T03:22:08;5.00;99.90
4556;DHT22;2290;48.674;9.018;2022-11-20T03:24:34;5.00;99.90
4556;DHT22;2290;48.674;9.018;2022-11-20T03:32:10;4.90;99.90
4556;DHT22;2290;48.674;9.018;2022-11-20T03:42:22;4.80;99.90
4556;DHT22;2290;48.674;9.018;2022-11-20T03:45:06;4.80;99.90
4556;DHT22;2290;48.674;9.018;2022-11-20T04:02:58;4.70;99.90
4556;DHT22;2290;48.674;9.018;2022-11-20T04:08:00;4.70;99.90
4556;DHT22;2290;48.674;9.018;2022-11-20T04:18:11;4.80;99.90
4556;DHT22;2290;48.674;9.018;2022-11-20T04:20:37;4.80;99.90
4556;DHT22;2290;48.674;9.018;2022-11-20T04:25:38;4.90;99.90
4556;DHT22;2290;48.674;9.018;2022-11-20T04:28:03;4.90;99.90
4556;DHT22;2290;48.674;9.018;2022-11-20T04:33:04;5.00;99.90
4556;DHT22;2290;48.674;9.018;2022-11-20T04:51:03;5.10;99.90
4556;DHT22;2290;48.674;9.018;2022-11-20T05:03:51;5.00;99.90
4556;DHT22;2290;48.674;9.018;2022-11-20T05:06:19;5.10;99.90
4556;DHT22;2290;48.674;9.018;2022-11-20T05:08:45;5.10;99.90
4556;DHT22;2290;48.674;9.018;2022-11-20T05:11:16;5.10;99.90
4556;DHT22;2290;48.674;9.018;2022-11-20T05:24:03;5.00;99.90
4556;DHT22;2290;48.674;9.018;2022-11-20T05:52:21;5.10;99.90
4556;DHT22;2290;48.674;9.018;2022-11-20T05:54:47;5.20;99.90
4556;DHT22;2290;48.674;9.018;2022-11-20T06:15:20;5.10;99.90
4556;DHT22;2290;48.674;9.018;2022-11-20T06:17:45;6.40;99.90
4556;DHT22;2290;48.674;9.018;2022-11-20T06:30:33;5.30;99.90
4556;DHT22;2290;48.674;9.018;2022-11-20T06:43:20;5.30;99.90
4556;DHT22;2290;48.674;9.018;2022-11-20T06:45:46;5.40;99.90
4556;DHT22;2290;48.674;9.018;2022-11-20T06:50:47;5.40;99.90
4556;DHT22;2290;48.674;9.018;2022-11-20T06:53:12;5.50;99.90
4556;DHT22;2290;48.674;9.018;2022-11-20T06:55:42;5.40;99.90
4556;DHT22;2290;48.674;9.018;2022-11-20T07:05:56;5.40;99.90
4556;DHT22;2290;48.674;9.018;2022-11-20T07:08:22;5.50;99.90
4556;DHT22;2290;48.674;9.018;2022-11-20T07:10:47;5.50;99.90
4556;DHT22;2290;48.674;9.018;2022-11-20T07:13:13;5.50;99.90
4556;DHT22;2290;48.674;9.018;2022-11-20T07:15:39;5.60;99.90
4556;DHT22;2290;48.674;9.018;2022-11-20T07:18:04;5.60;99.90
4556;DHT22;2290;48.674;9.018;2022-11-20T07:20:30;5.80;99.90
4556;DHT22;2290;48.674;9.018;2022-11-20T07:22:57;5.80;99.90
4556;DHT22;2290;48.674;9.018;2022-11-20T07:25:25;6.00;99.90
4556;DHT22;2290;48.674;9.018;2022-11-20T07:27:51;6.00;99.90
4556;DHT22;2290;48.674;9.018;2022-11-20T07:30:17;5.90;99.90
4556;DHT22;2290;48.674;9.018;2022-11-20T07:32:45;5.90;99.90
4556;DHT22;2290;48.674;9.018;2022-11-20T07:35:16;5.90;99.90
4556;DHT22;2290;48.674;9.018;2022-11-20T07:37:45;5.70;99.90
4556;DHT22;2290;48.674;9.018;2022-11-20T07:40:15;5.80;99.90
4556;DHT22;2290;48.674;9.018;2022-11-20T07:42:48;5.90;99.90
4556;DHT22;2290;48.674;9.018;2022-11-20T07:48:02;5.80;99.90
4556;DHT22;2290;48.674;9.018;2022-11-20T07:50:59;5.80;99.90
4556;DHT22;2290;48.674;9.018;2022-11-20T07:53:35;5.80;99.90
4556;DHT22;2290;48.674;9.018;2022-11-20T07:56:03;5.90;99.90
4556;DHT22;2290;48.674;9.018;2022-11-20T07:58:30;6.00;99.90
4556;DHT22;2290;48.674;9.018;2022-11-20T08:01:08;6.00;99.90
4556;DHT22;2290;48.674;9.018;2022-11-20T08:03:37;6.10;99.90
4556;DHT22;2290;48.674;9.018;2022-11-20T08:06:04;6.10;99.90
4556;DHT22;2290;48.674;9.018;2022-11-20T08:08:34;6.10;99.90
4556;DHT22;2290;48.674;9.018;2022-11-20T08:11:05;6.20;99.90
4556;DHT22;2290;48.674;9.018;2022-11-20T08:13:49;6.10;99.90
4556;DHT22;2290;48.674;9.018;2022-11-20T08:16:41;7.20;99.90
4556;DHT22;2290;48.674;9.018;2022-11-20T08:19:15;6.10;99.90
4556;DHT22;2290;48.674;9.018;2022-11-20T08:36:33;6.10;99.90
4556;DHT22;2290;48.674;9.018;2022-11-20T08:41:44;6.20;99.90
4556;DHT22;2290;48.674;9.018;2022-11-20T08:44:12;6.30;99.90
4556;DHT22;2290;48.674;9.018;2022-11-20T08:46:48;6.40;99.90
4556;DHT22;2290;48.674;9.018;2022-11-20T08:51:53;6.30;99.90
4556;DHT22;2290;48.674;9.018;2022-11-20T08:54:21;6.40;99.90
4556;DHT22;2290;48.674;9.018;2022-11-20T08:59:29;6.40;99.90
4556;DHT22;2290;48.674;9.018;2022-11-20T09:12:29;6.40;99.90
4556;DHT22;2290;48.674;9.018;2022-11-20T09:15:13;8.30;99.90
4556;DHT22;2290;48.674;9.018;2022-11-20T09:17:40;6.40;99.90
4556;DHT22;2290;48.674;9.018;2022-11-20T09:20:05;6.40;99.90
4556;DHT22;2290;48.674;9.018;2022-11-20T09:22:31;6.50;99.90
4556;DHT22;2290;48.674;9.018;2022-11-20T10:30:14;6.30;99.90
4556;DHT22;2290;48.674;9.018;2022-11-20T10:33:39;6.40;99.90
4556;DHT22;2290;48.674;9.018;2022-11-20T10:36:27;6.30;99.90
4556;DHT22;2290;48.674;9.018;2022-11-20T10:39:10;8.00;99.90
4556;DHT22;2290;48.674;9.018;2022-11-20T10:41:55;8.10;99.90
4556;DHT22;2290;48.674;9.018;2022-11-20T10:44:30;6.40;99.90
4556;DHT22;2290;48.674;9.018;2022-11-20T10:47:36;6.40;99.90
4556;DHT22;2290;48.674;9.018;2022-11-20T10:50:14;6.40;99.90
4556;DHT22;2290;48.674;9.018;2022-11-20T10:55:50;6.50;99.90
4556;DHT22;2290;48.674;9.018;2022-11-20T10:58:54;6.60;99.90
4556;DHT22;2290;48.674;9.018;2022-11-20T11:01:27;6.60;99.90
4556;DHT22;2290;48.674;9.018;2022-11-20T11:04:04;6.60;99.90
4556;DHT22;2290;48.674;9.018;2022-11-20T11:06:49;6.80;99.90
4556;DHT22;2290;48.674;9.018;2022-11-20T11:10:36;6.90;99.90
4556;DHT22;2290;48.674;9.018;2022-11-20T11:13:34;6.80;99.90
4556;DHT22;2290;48.674;9.018;2022-11-20T11:16:25;6.90;99.90
4556;DHT22;2290;48.674;9.018;2022-11-20T11:19:23;7.00;99.90
4556;DHT22;2290;48.674;9.018;2022-11-20T11:21:57;7.00;99.90
4556;DHT22;2290;48.674;9.018;2022-11-20T11:24:38;7.00;99.90
4556;DHT22;2290;48.674;9.018;2022-11-20T11:27:53;7.10;99.90
4556;DHT22;2290;48.674;9.018;2022-11-20T11:30:30;7.20;99.90
4556;DHT22;2290;48.674;9.018;2022-11-20T11:38:40;7.70;99.90
4556;DHT22;2290;48.674;9.018;2022-11-20T11:41:25;8.10;99.90
4556;DHT22;2290;48.674;9.018;2022-11-20T11:50:21;8.50;99.90
4556;DHT22;2290;48.674;9.018;2022-11-20T11:55:43;8.60;99.90
4556;DHT22;2290;48.674;9.018;2022-11-20T11:58:46;8.40;99.90
4556;DHT22;2290;48.674;9.018;2022-11-20T12:01:36;8.50;99.90
4556;DHT22;2290;48.674;9.018;2022-11-20T12:07:00;8.70;99.90
4556;DHT22;2290;48.674;9.018;2022-11-20T12:12:23;9.00;99.90
4556;DHT22;2290;48.674;9.018;2022-11-20T12:14:53;8.90;99.90
4556;DHT22;2290;48.674;9.018;2022-11-20T12:17:21;10.10;99.90
4556;DHT22;2290;48.674;9.018;2022-11-20T12:19:46;9.00;99.90
4556;DHT22;2290;48.674;9.018;2022-11-20T12:22:53;8.60;99.90
4556;DHT22;2290;48.674;9.018;2022-11-20T12:25:30;8.50;99.90
4556;DHT22;2290;48.674;9.018;2022-11-20T12:28:37;8.50;99.90
4556;DHT22;2290;48.674;9.018;2022-11-20T12:37:15;8.20;99.90
4556;DHT22;2290;48.674;9.018;2022-11-20T12:39:58;8.40;99.90
4556;DHT22;2290;48.674;9.018;2022-11-20T12:46:26;8.90;99.90
4556;DHT22;2290;48.674;9.018;2022-11-20T12:52:37;9.00;99.90
4556;DHT22;2290;48.674;9.018;2022-11-20T13:01:00;9.40;99.90
4556;DHT22;2290;48.674;9.018;2022-11-20T13:03:47;9.60;99.90
4556;DHT22;2290;48.674;9.018;2022-11-20T13:06:18;9.70;99.90
4556;DHT22;2290;48.674;9.018;2022-11-20T13:08:55;9.60;99.90
4556;DHT22;2290;48.674;9.018;2022-11-20T13:17:14;10.00;99.90
4556;DHT22;2290;48.674;9.018;2022-11-20T13:19:41;9.80;99.90
4556;DHT22;2290;48.674;9.018;2022-11-20T13:22:09;9.70;99.90
4556;DHT22;2290;48.674;9.018;2022-11-20T13:24:36;9.20;99.90
4556;DHT22;2290;48.674;9.018;2022-11-20T13:27:02;8.90;99.90
4556;DHT22;2290;48.674;9.018;2022-11-20T13:29:30;8.90;99.90
4556;DHT22;2290;48.674;9.018;2022-11-20T13:32:11;8.90;99.90
4556;DHT22;2290;48.674;9.018;2022-11-20T13:34:50;8.50;99.90
4556;DHT22;2290;48.674;9.018;2022-11-20T13:37:36;8.40;99.90
4556;DHT22;2290;48.674;9.018;2022-11-20T13:40:22;8.40;99.90
4556;DHT22;2290;48.674;9.018;2022-11-20T13:43:34;8.00;99.90
4556;DHT22;2290;48.674;9.018;2022-11-20T13:45:56;8.00;99.90
4556;DHT22;2290;48.674;9.018;2022-11-20T13:48:24;7.90;99.90
4556;DHT22;2290;48.674;9.018;2022-11-20T13:51:24;8.00;99.90
4556;DHT22;2290;48.674;9.018;2022-11-20T14:04:36;7.20;99.90
4556;DHT22;2290;48.674;9.018;2022-11-20T14:07:05;7.90;99.90
4556;DHT22;2290;48.674;9.018;2022-11-20T14:09:33;7.70;99.90
4556;DHT22;2290;48.674;9.018;2022-11-20T14:12:14;7.10;99.90
4556;DHT22;2290;48.674;9.018;2022-11-20T14:15:01;7.10;99.90
4556;DHT22;2290;48.674;9.018;2022-11-20T14:17:43;7.10;99.90
4556;DHT22;2290;48.674;9.018;2022-11-20T14:20:18;7.20;99.90
4556;DHT22;2290;48.674;9.018;2022-11-20T14:22:52;7.20;99.90
4556;DHT22;2290;48.674;9.018;2022-11-20T14:25:21;7.20;99.90
4556;DHT22;2290;48.674;9.018;2022-11-20T14:28:00;7.30;99.90
4556;DHT22;2290;48.674;9.018;2022-11-20T14:30:29;7.70;99.90
4556;DHT22;2290;48.674;9.018;2022-11-20T14:33:02;7.40;99.90
4556;DHT22;2290;48.674;9.018;2022-11-20T14:35:34;7.40;99.90
4556;DHT22;2290;48.674;9.018;2022-11-20T14:38:02;7.40;99.90
4556;DHT22;2290;48.674;9.018;2022-11-20T14:40:33;7.40;99.90
4556;DHT22;2290;48.674;9.018;2022-11-20T14:43:37;7.30;99.90
4556;DHT22;2290;48.674;9.018;2022-11-20T14:46:09;7.30;99.90
4556;DHT22;2290;48.674;9.018;2022-11-20T14:48:44;7.30;99.90
4556;DHT22;2290;48.674;9.018;2022-11-20T14:51:43;7.30;99.90
4556;DHT22;2290;48.674;9.018;2022-11-20T14:54:20;7.30;99.90
4556;DHT22;2290;48.674;9.018;2022-11-20T14:57:01;7.40;99.90
4556;DHT22;2290;48.674;9.018;2022-11-20T14:59:32;7.40;99.90
4556;DHT22;2290;48.674;9.018;2022-11-20T15:02:16;7.50;99.90
4556;DHT22;2290;48.674;9.018;2022-11-20T15:04:58;7.70;99.90
4556;DHT22;2290;48.674;9.018;2022-11-20T15:07:29;7.30;99.90
4556;DHT22;2290;48.674;9.018;2022-11-20T15:10:09;7.30;99.90
4556;DHT22;2290;48.674;9.018;2022-11-20T15:13:24;7.00;99.90
4556;DHT22;2290;48.674;9.018;2022-11-20T15:16:02;7.00;99.90
4556;DHT22;2290;48.674;9.018;2022-11-20T15:18:46;8.30;99.90
4556;DHT22;2290;48.674;9.018;2022-11-20T15:21:16;6.90;99.90
4556;DHT22;2290;48.674;9.018;2022-11-20T15:23:42;6.90;99.90
4556;DHT22;2290;48.674;9.018;2022-11-20T15:26:09;6.80;99.90
4556;DHT22;2290;48.674;9.018;2022-11-20T15:28:40;6.70;99.90
4556;DHT22;2290;48.674;9.018;2022-11-20T15:31:11;6.70;99.90
4556;DHT22;2290;48.674;9.018;2022-11-20T15:33:37;6.70;99.90
4556;DHT22;2290;48.674;9.018;2022-11-20T15:36:03;6.90;99.90
4556;DHT22;2290;48.674;9.018;2022-11-20T15:38:32;6.70;99.90
4556;DHT22;2290;48.674;9.018;2022-11-20T15:41:00;6.60;99.90
4556;DHT22;2290;48.674;9.018;2022-11-20T15:43:27;6.60;99.90
4556;DHT22;2290;48.674;9.018;2022-11-20T15:45:58;6.50;99.90
4556;DHT22;2290;48.674;9.018;2022-11-20T15:48:42;6.50;99.90
4556;DHT22;2290;48.674;9.018;2022-11-20T15:51:41;6.60;99.90
4556;DHT22;2290;48.674;9.018;2022-11-20T15:54:19;6.50;99.90
4556;DHT22;2290;48.674;9.018;2022-11-20T15:57:03;6.50;99.90
4556;DHT22;2290;48.674;9.018;2022-11-20T15:59:38;6.40;99.90
4556;DHT22;2290;48.674;9.018;2022-11-20T16:02:27;6.30;99.90
4556;DHT22;2290;48.674;9.018;2022-11-20T16:04:54;6.30;99.90
4556;DHT22;2290;48.674;9.018;2022-11-20T16:07:20;6.40;99.90
4556;DHT22;2290;48.674;9.018;2022-11-20T16:09:46;7.80;99.90
4556;DHT22;2290;48.674;9.018;2022-11-20T16:12:18;6.50;99.90
4556;DHT22;2290;48.674;9.018;2022-11-20T16:15:05;6.40;99.90
4556;DHT22;2290;48.674;9.018;2022-11-20T16:17:50;6.40;99.90
4556;DHT22;2290;48.674;9.018;2022-11-20T16:20:16;6.50;99.90
4556;DHT22;2290;48.674;9.018;2022-11-20T16:22:41;6.40;99.90
4556;DHT22;2290;48.674;9.018;2022-11-20T16:25:07;6.50;99.90
4556;DHT22;2290;48.674;9.018;2022-11-20T16:27:33;6.60;99.90
4556;DHT22;2290;48.674;9.018;2022-11-20T16:29:58;6.70;99.90
4556;DHT22;2290;48.674;9.018;2022-11-20T16:32:24;6.70;99.90
4556;DHT22;2290;48.674;9.018;2022-11-20T16:34:51;6.90;99.90
4556;DHT22;2290;48.674;9.018;2022-11-20T16:37:16;7.10;99.90
4556;DHT22;2290;48.674;9.018;2022-11-20T16:39:42;7.00;99.90
4556;DHT22;2290;48.674;9.018;2022-11-20T16:42:07;6.90;99.90
4556;DHT22;2290;48.674;9.018;2022-11-20T16:44:33;7.40;99.90
4556;DHT22;2290;48.674;9.018;2022-11-20T16:46:59;6.90;99.90
4556;DHT22;2290;48.674;9.018;2022-11-20T16:49:24;6.90;99.90
4556;DHT22;2290;48.674;9.018;2022-11-20T16:51:50;8.70;99.90
4556;DHT22;2290;48.674;9.018;2022-11-20T16:54:16;6.80;99.90
4556;DHT22;2290;48.674;9.018;2022-11-20T16:56:41;6.70;99.90
4556;DHT22;2290;48.674;9.018;2022-11-20T16:59:07;6.70;99.90
4556;DHT22;2290;48.674;9.018;2022-11-20T17:01:33;7.80;99.90
4556;DHT22;2290;48.674;9.018;2022-11-20T17:04:04;6.60;99.90
4556;DHT22;2290;48.674;9.018;2022-11-20T17:06:35;6.60;99.90
4556;DHT22;2290;48.674;9.018;2022-11-20T17:09:02;6.70;99.90
4556;DHT22;2290;48.674;9.018;2022-11-20T17:11:28;6.50;99.90
4556;DHT22;2290;48.674;9.018;2022-11-20T17:13:55;6.50;99.90
4556;DHT22;2290;48.674;9.018;2022-11-20T17:16:22;6.40;99.90
4556;DHT22;2290;48.674;9.018;2022-11-20T17:21:15;6.50;99.90
4556;DHT22;2290;48.674;9.018;2022-11-20T17:23:42;9.00;99.90
4556;DHT22;2290;48.674;9.018;2022-11-20T17:26:18;6.40;99.90
4556;DHT22;2290;48.674;9.018;2022-11-20T17:28:45;6.50;99.90
4556;DHT22;2290;48.674;9.018;2022-11-20T17:31:12;6.50;99.90
4556;DHT22;2290;48.674;9.018;2022-11-20T17:33:40;6.40;99.90
4556;DHT22;2290;48.674;9.018;2022-11-20T17:36:07;6.50;99.90
4556;DHT22;2290;48.674;9.018;2022-11-20T17:43:35;6.50;99.90
4556;DHT22;2290;48.674;9.018;2022-11-20T17:46:10;6.40;99.90
4556;DHT22;2290;48.674;9.018;2022-11-20T17:48:36;6.40;99.90
4556;DHT22;2290;48.674;9.018;2022-11-20T17:51:04;6.40;99.90
4556;DHT22;2290;48.674;9.018;2022-11-20T17:53:35;6.50;99.90
4556;DHT22;2290;48.674;9.018;2022-11-20T17:56:01;6.50;99.90
4556;DHT22;2290;48.674;9.018;2022-11-20T17:58:48;6.50;99.90
4556;DHT22;2290;48.674;9.018;2022-11-20T18:01:14;6.50;99.90
4556;DHT22;2290;48.674;9.018;2022-11-20T18:03:40;6.50;99.90
4556;DHT22;2290;48.674;9.018;2022-11-20T18:06:16;6.60;99.90
4556;DHT22;2290;48.674;9.018;2022-11-20T18:08:42;6.60;99.90
4556;DHT22;2290;48.674;9.018;2022-11-20T18:11:14;6.70;99.90
4556;DHT22;2290;48.674;9.018;2022-11-20T18:13:41;6.60;99.90
4556;DHT22;2290;48.674;9.018;2022-11-20T18:19:01;6.60;99.90
4556;DHT22;2290;48.674;9.018;2022-11-20T18:21:28;6.70;99.90
4556;DHT22;2290;48.674;9.018;2022-11-20T18:23:55;6.60;99.90
4556;DHT22;2290;48.674;9.018;2022-11-20T18:26:21;6.60;99.90
4556;DHT22;2290;48.674;9.018;2022-11-20T18:28:48;6.60;99.90
4556;DHT22;2290;48.674;9.018;2022-11-20T18:31:13;6.50;99.90
4556;DHT22;2290;48.674;9.018;2022-11-20T21:58:31;4.80;99.90
4556;DHT22;2290;48.674;9.018;2022-11-20T22:16:31;5.00;99.90
4556;DHT22;2290;48.674;9.018;2022-11-20T22:24:00;4.90;99.90
4556;DHT22;2290;48.674;9.018;2022-11-20T22:26:38;4.80;99.90
4556;DHT22;2290;48.674;9.018;2022-11-20T22:29:30;4.90;99.90
4556;DHT22;2290;48.674;9.018;2022-11-20T22:32:32;4.80;99.90
4556;DHT22;2290;48.674;9.018;2022-11-20T22:35:08;4.90;99.90
4556;DHT22;2290;48.674;9.018;2022-11-20T22:48:25;4.90;99.90
4556;DHT22;2290;48.674;9.018;2022-11-20T22:51:41;4.80;99.90
4556;DHT22;2290;48.674;9.018;2022-11-20T22:55:07;4.70;99.90
4556;DHT22;2290;48.674;9.018;2022-11-20T23:04:23;4.70;99.90
4556;DHT22;2290;48.674;9.018;2022-11-20T23:17:45;4.50;99.90
